Stamford, Texas
Current Conditions -  °F | °C
As of 11:58 AM on Wednesday 28 Jan 2015 (Local Time) from KDYS Reporting Station
Broken Clouds Broken Clouds  
Wind Chill: 74°   Ceiling: 19000
Heat Index: 74°   Visibility: 10mi
Dew Point: 44°   Wind: 15mph
Humidity: 34%   Direction: 200°SSW
Pressure: 30.08"   Gusts: NA
Location:  32.95°N, 99.8°W
Report Text: KDYS 281758Z 20013KT 10SM FEW120 BKN190 23/06 A3008 RMK AO2A SLP164 T02330064 10242 20093 58006 $
Loading
Personal Weather Stations






























Interactive Weather Map New forecast layout! Learn more

10-Day Weather Forecast

Advertisements
Track Severe Weather on mobile